createdAt,value
2017-09-30T00:01:20.720Z,13.40
2017-09-30T00:03:48.996Z,13.40
2017-09-30T00:06:17.292Z,13.50
2017-09-30T00:08:45.578Z,14.30
2017-09-30T00:11:13.897Z,13.40
2017-09-30T00:13:42.939Z,13.40
2017-09-30T00:16:11.169Z,13.30
2017-09-30T00:18:39.437Z,13.40
2017-09-30T00:21:07.681Z,13.40
2017-09-30T00:23:35.929Z,13.30
2017-09-30T00:26:04.204Z,13.30
2017-09-30T00:28:32.444Z,13.30
2017-09-30T00:31:00.681Z,13.40
2017-09-30T00:33:29.721Z,13.40
2017-09-30T00:35:57.961Z,13.40
2017-09-30T00:38:26.210Z,13.50
2017-09-30T00:40:54.497Z,13.60
2017-09-30T00:43:22.737Z,13.60
2017-09-30T00:45:50.977Z,13.50
2017-09-30T00:48:20.009Z,13.50
2017-09-30T00:50:48.253Z,13.50
2017-09-30T00:53:16.499Z,13.50
2017-09-30T00:55:44.775Z,13.50
2017-09-30T00:58:13.022Z,13.50
2017-09-30T01:00:41.261Z,13.40
2017-09-30T01:03:09.545Z,13.40
2017-09-30T01:05:37.785Z,13.40
2017-09-30T01:08:06.030Z,13.40
2017-09-30T01:10:35.069Z,13.30
2017-09-30T01:13:03.316Z,13.30
2017-09-30T01:15:31.553Z,13.30
2017-09-30T01:17:59.846Z,13.30
2017-09-30T01:20:28.085Z,13.30
2017-09-30T01:22:56.333Z,13.20
2017-09-30T01:25:24.733Z,13.20
2017-09-30T01:27:52.974Z,13.20
2017-09-30T01:30:21.222Z,13.20
2017-09-30T01:32:49.497Z,13.20
2017-09-30T01:35:17.737Z,13.20
2017-09-30T01:37:45.986Z,13.20
2017-09-30T01:40:15.030Z,13.40
2017-09-30T01:42:43.278Z,13.30
2017-09-30T01:45:11.530Z,13.40
2017-09-30T01:47:39.797Z,13.40
2017-09-30T01:50:08.041Z,13.30
2017-09-30T01:52:36.280Z,13.30
2017-09-30T01:55:04.545Z,13.30
2017-09-30T01:57:32.788Z,13.20
2017-09-30T02:00:01.805Z,13.10
2017-09-30T02:02:30.085Z,13.10
2017-09-30T02:04:58.329Z,13.10
2017-09-30T02:07:26.578Z,13.10
2017-09-30T02:09:54.869Z,13.00
2017-09-30T02:12:23.113Z,13.00
2017-09-30T02:14:51.361Z,13.00
2017-09-30T02:17:19.738Z,13.00
2017-09-30T02:19:47.977Z,13.00
2017-09-30T02:22:16.225Z,13.00
2017-09-30T02:24:44.518Z,13.00
2017-09-30T02:27:12.757Z,13.00
2017-09-30T02:29:41.004Z,13.00
2017-09-30T02:32:09.286Z,13.00
2017-09-30T02:34:37.529Z,12.90
2017-09-30T02:37:05.781Z,12.90
2017-09-30T02:39:34.828Z,12.90
2017-09-30T02:42:03.073Z,12.90
2017-09-30T02:44:31.318Z,12.90
2017-09-30T02:46:59.705Z,13.00
2017-09-30T02:49:27.950Z,13.00
2017-09-30T02:51:56.191Z,13.00
2017-09-30T02:54:24.466Z,13.00
2017-09-30T02:56:52.713Z,13.00
2017-09-30T02:59:20.957Z,13.00
2017-09-30T03:01:49.229Z,12.90
2017-09-30T03:04:17.477Z,13.00
2017-09-30T03:06:45.717Z,13.00
2017-09-30T03:09:14.766Z,13.10
2017-09-30T03:11:43.005Z,13.00
2017-09-30T03:14:11.250Z,13.00
2017-09-30T03:16:39.518Z,13.00
2017-09-30T03:19:07.757Z,13.00
2017-09-30T03:21:35.996Z,13.00
2017-09-30T03:24:04.294Z,13.00
2017-09-30T03:26:32.537Z,12.90
2017-09-30T03:29:01.545Z,12.80
2017-09-30T03:31:29.934Z,12.80
2017-09-30T03:33:58.172Z,12.90
2017-09-30T03:36:26.413Z,12.90
2017-09-30T03:38:54.809Z,12.90
2017-09-30T03:41:23.061Z,12.80
2017-09-30T03:43:51.301Z,12.80
2017-09-30T03:46:19.569Z,12.80
2017-09-30T03:48:47.817Z,12.70
2017-09-30T03:51:16.065Z,12.70
2017-09-30T03:53:45.117Z,12.70
2017-09-30T03:56:13.361Z,12.60
2017-09-30T03:58:41.601Z,12.70
2017-09-30T04:01:09.881Z,12.60
2017-09-30T04:03:38.125Z,12.60
2017-09-30T04:06:06.368Z,12.60
2017-09-30T04:08:34.653Z,12.60
2017-09-30T04:11:02.898Z,12.70
2017-09-30T04:13:31.148Z,12.60
2017-09-30T04:15:59.433Z,12.60
2017-09-30T04:18:27.677Z,12.60
2017-09-30T04:20:55.926Z,12.60
2017-09-30T04:23:24.324Z,12.60
2017-09-30T04:25:52.568Z,12.60
2017-09-30T04:28:20.809Z,12.70
2017-09-30T04:30:49.081Z,12.80
2017-09-30T04:33:17.321Z,12.80
2017-09-30T04:35:45.597Z,12.70
2017-09-30T04:38:13.877Z,12.70
2017-09-30T04:40:42.113Z,12.70
2017-09-30T04:43:10.357Z,12.70
2017-09-30T04:45:39.385Z,12.60
2017-09-30T04:48:07.632Z,12.60
2017-09-30T04:50:35.869Z,12.60
2017-09-30T04:53:04.149Z,12.50
2017-09-30T04:55:32.398Z,12.50
2017-09-30T04:58:00.638Z,12.40
2017-09-30T05:00:29.685Z,12.30
2017-09-30T05:02:57.921Z,12.30
2017-09-30T05:05:26.179Z,12.20
2017-09-30T05:07:54.561Z,12.20
2017-09-30T05:10:22.797Z,12.20
2017-09-30T05:12:51.045Z,12.20
2017-09-30T05:15:19.329Z,12.20
2017-09-30T05:17:47.581Z,12.20
2017-09-30T05:20:15.824Z,12.20
2017-09-30T05:22:44.093Z,12.10
2017-09-30T05:25:12.345Z,12.00
2017-09-30T05:27:40.591Z,12.00
2017-09-30T05:30:09.621Z,12.00
2017-09-30T05:32:37.870Z,11.90
2017-09-30T05:35:06.117Z,12.00
2017-09-30T05:37:34.381Z,12.00
2017-09-30T05:40:02.630Z,12.00
2017-09-30T05:42:30.871Z,12.00
2017-09-30T05:44:59.917Z,12.00
2017-09-30T05:47:28.161Z,12.00
2017-09-30T05:49:56.396Z,12.10
2017-09-30T05:52:24.897Z,12.20
2017-09-30T05:54:53.138Z,12.20
2017-09-30T05:57:21.372Z,12.20
2017-09-30T05:59:49.660Z,12.20
2017-09-30T06:02:17.897Z,12.30
2017-09-30T06:04:46.145Z,12.30
2017-09-30T06:07:15.192Z,12.50
2017-09-30T06:09:43.433Z,12.40
2017-09-30T06:12:11.678Z,12.50
2017-09-30T06:14:39.941Z,12.60
2017-09-30T06:17:08.186Z,12.80
2017-09-30T06:19:36.434Z,12.90
2017-09-30T06:22:04.845Z,13.00
2017-09-30T06:24:33.140Z,13.00
2017-09-30T06:27:02.149Z,13.30
2017-09-30T06:29:30.429Z,13.20
2017-09-30T06:31:58.669Z,13.40
2017-09-30T06:34:26.909Z,13.60
2017-09-30T06:36:55.950Z,14.00
2017-09-30T06:39:24.185Z,13.90
2017-09-30T06:41:52.425Z,14.10
2017-09-30T06:44:20.829Z,14.20
2017-09-30T06:46:49.082Z,14.40
2017-09-30T06:49:17.330Z,14.50
2017-09-30T06:51:45.717Z,14.70
2017-09-30T06:54:13.960Z,14.80
2017-09-30T06:56:42.209Z,15.00
2017-09-30T06:59:10.494Z,15.00
2017-09-30T07:01:38.741Z,15.10
2017-09-30T07:04:06.989Z,15.10
2017-09-30T07:06:35.281Z,15.20
2017-09-30T07:09:03.528Z,15.30
2017-09-30T07:11:31.774Z,15.40
2017-09-30T07:14:00.164Z,15.50
2017-09-30T07:16:28.417Z,15.60
2017-09-30T07:18:56.681Z,15.70
2017-09-30T07:21:24.968Z,15.70
2017-09-30T07:23:53.213Z,15.90
2017-09-30T07:26:21.519Z,15.90
2017-09-30T07:28:49.806Z,16.00
2017-09-30T07:31:18.059Z,16.10
2017-09-30T07:33:46.305Z,16.20
2017-09-30T07:36:14.822Z,16.20
2017-09-30T07:38:43.064Z,16.30
2017-09-30T07:41:11.305Z,16.40
2017-09-30T07:43:39.590Z,16.50
2017-09-30T07:46:07.833Z,16.50
2017-09-30T07:48:36.077Z,16.60
2017-09-30T07:51:04.356Z,16.60
2017-09-30T07:53:32.598Z,16.70
2017-09-30T07:56:00.846Z,16.70
2017-09-30T07:58:29.904Z,16.80
2017-09-30T08:00:58.157Z,16.80
2017-09-30T08:03:26.393Z,16.80
2017-09-30T08:05:54.665Z,16.90
2017-09-30T08:08:22.913Z,17.00
2017-09-30T08:10:51.157Z,17.00
2017-09-30T08:13:19.545Z,17.00
2017-09-30T08:15:47.789Z,17.00
2017-09-30T08:18:16.033Z,17.00
2017-09-30T08:20:44.301Z,17.10
2017-09-30T08:23:12.545Z,17.20
2017-09-30T08:25:40.789Z,17.30
2017-09-30T08:28:09.834Z,17.40
2017-09-30T08:30:38.082Z,17.40
2017-09-30T08:33:06.321Z,17.60
2017-09-30T08:35:34.602Z,17.60
2017-09-30T08:38:02.841Z,17.70
2017-09-30T08:40:31.081Z,17.80
2017-09-30T08:42:59.498Z,17.90
2017-09-30T08:45:27.737Z,17.90
2017-09-30T08:47:55.976Z,18.00
2017-09-30T08:50:24.351Z,18.10
2017-09-30T08:52:52.585Z,18.10
2017-09-30T08:55:21.609Z,18.10
2017-09-30T08:57:49.886Z,18.00
2017-09-30T09:00:18.129Z,18.10
2017-09-30T09:02:46.365Z,18.10
2017-09-30T09:05:14.640Z,18.20
2017-09-30T09:07:42.886Z,18.30
2017-09-30T09:10:11.130Z,18.30
2017-09-30T09:12:40.156Z,18.40
2017-09-30T09:15:08.392Z,18.30
2017-09-30T09:17:36.633Z,18.40
2017-09-30T09:20:05.882Z,18.60
2017-09-30T09:22:34.124Z,18.60
2017-09-30T09:25:02.372Z,18.70
2017-09-30T09:27:30.706Z,18.80
2017-09-30T09:29:59.705Z,18.90
2017-09-30T09:32:27.945Z,18.90
2017-09-30T09:34:56.322Z,19.00
2017-09-30T09:37:24.555Z,19.10
2017-09-30T09:39:53.556Z,19.30
2017-09-30T09:42:21.833Z,19.30
2017-09-30T09:44:50.069Z,19.40
2017-09-30T09:47:18.305Z,19.50
2017-09-30T09:49:47.462Z,19.70
2017-09-30T09:52:15.693Z,19.60
2017-09-30T09:54:43.929Z,19.70
2017-09-30T09:57:12.213Z,19.70
2017-09-30T09:59:40.460Z,19.60
2017-09-30T10:02:08.697Z,19.70
2017-09-30T10:04:37.725Z,19.80
2017-09-30T10:07:06.046Z,19.80
2017-09-30T10:09:34.261Z,19.70
2017-09-30T10:12:02.549Z,19.80
2017-09-30T10:14:30.784Z,19.80
2017-09-30T10:16:59.025Z,19.80
2017-09-30T10:19:27.293Z,19.80
2017-09-30T10:21:55.537Z,19.80
2017-09-30T10:24:23.782Z,19.90
2017-09-30T10:26:52.062Z,20.00
2017-09-30T10:29:20.306Z,20.00
2017-09-30T10:31:48.537Z,19.90
2017-09-30T10:34:17.573Z,20.00
2017-09-30T10:36:45.814Z,20.00
2017-09-30T10:39:14.053Z,20.00
2017-09-30T10:41:42.318Z,20.10
2017-09-30T10:44:10.673Z,20.10
2017-09-30T10:46:39.673Z,20.30
2017-09-30T10:49:08.087Z,20.20
2017-09-30T10:51:37.114Z,20.50
2017-09-30T10:54:05.367Z,20.50
2017-09-30T10:56:34.385Z,20.70
2017-09-30T10:59:02.626Z,20.60
2017-09-30T11:01:30.865Z,20.60
2017-09-30T11:03:59.141Z,20.60
2017-09-30T11:06:27.380Z,20.70
2017-09-30T11:08:55.624Z,20.70
2017-09-30T11:11:24.666Z,20.70
2017-09-30T11:13:52.906Z,20.70
2017-09-30T11:16:21.153Z,20.80
2017-09-30T11:18:49.427Z,20.90
2017-09-30T11:21:17.665Z,20.90
2017-09-30T11:23:45.907Z,20.80
2017-09-30T11:26:14.933Z,20.90
2017-09-30T11:28:43.169Z,20.90
2017-09-30T11:31:11.405Z,20.90
2017-09-30T11:33:40.449Z,20.90
2017-09-30T11:36:08.689Z,20.90
2017-09-30T11:38:36.933Z,20.90
2017-09-30T11:41:05.193Z,20.70
2017-09-30T11:43:33.438Z,20.70
2017-09-30T11:46:01.690Z,20.80
2017-09-30T11:48:30.737Z,20.90
2017-09-30T11:50:58.969Z,20.80
2017-09-30T11:53:27.210Z,20.90
2017-09-30T11:55:55.491Z,20.90
2017-09-30T11:58:23.733Z,21.00
2017-09-30T12:00:51.974Z,20.90
2017-09-30T12:03:21.422Z,21.00
2017-09-30T12:05:49.673Z,20.90
2017-09-30T12:08:17.913Z,20.90
2017-09-30T12:10:46.205Z,20.90
2017-09-30T12:13:14.441Z,20.90
2017-09-30T12:15:42.682Z,20.90
2017-09-30T12:18:10.964Z,20.80
2017-09-30T12:20:39.210Z,20.90
2017-09-30T12:23:07.450Z,20.90
2017-09-30T12:25:36.488Z,21.20
2017-09-30T12:28:04.734Z,21.10
2017-09-30T12:30:32.977Z,21.10
2017-09-30T12:33:01.377Z,21.20
2017-09-30T12:35:29.613Z,21.20
2017-09-30T12:37:57.853Z,21.20
2017-09-30T12:40:26.125Z,21.30
2017-09-30T12:42:54.365Z,21.30
2017-09-30T12:45:22.614Z,21.30
2017-09-30T12:47:51.661Z,21.40
2017-09-30T12:50:19.904Z,21.40
2017-09-30T12:52:48.149Z,21.40
2017-09-30T12:55:16.421Z,21.60
2017-09-30T12:57:44.665Z,21.50
2017-09-30T13:00:12.909Z,21.60
2017-09-30T13:02:41.201Z,21.70
2017-09-30T13:05:09.557Z,21.70
2017-09-30T13:07:37.798Z,21.90
2017-09-30T13:10:06.093Z,22.00
2017-09-30T13:12:34.337Z,22.00
2017-09-30T13:15:02.585Z,21.90
2017-09-30T13:17:30.857Z,21.90
2017-09-30T13:19:59.100Z,21.90
2017-09-30T13:22:27.338Z,22.00
2017-09-30T13:24:56.365Z,22.40
2017-09-30T13:27:24.605Z,22.30
2017-09-30T13:29:52.841Z,22.60
2017-09-30T13:32:21.897Z,22.90
2017-09-30T13:34:50.137Z,22.90
2017-09-30T13:37:18.382Z,23.00
2017-09-30T13:39:46.657Z,23.00
2017-09-30T13:42:14.902Z,22.80
2017-09-30T13:44:43.129Z,23.10
2017-09-30T13:47:12.166Z,23.20
2017-09-30T13:49:40.408Z,23.20
2017-09-30T13:52:08.649Z,23.30
2017-09-30T13:54:37.068Z,23.50
2017-09-30T13:57:05.310Z,23.60
2017-09-30T13:59:33.557Z,23.80
2017-09-30T14:02:01.826Z,24.00
2017-09-30T14:04:30.067Z,24.30
2017-09-30T14:06:58.300Z,24.60
2017-09-30T14:09:27.358Z,24.00
2017-09-30T14:11:55.608Z,24.00
2017-09-30T14:14:23.849Z,23.60
2017-09-30T14:16:52.149Z,23.60
2017-09-30T14:19:21.165Z,24.10
2017-09-30T14:21:49.406Z,24.10
2017-09-30T14:24:18.437Z,23.90
2017-09-30T14:26:46.677Z,23.80
2017-09-30T14:29:14.913Z,24.00
2017-09-30T14:31:43.192Z,23.90
2017-09-30T14:34:11.434Z,23.90
2017-09-30T14:36:39.665Z,24.10
2017-09-30T14:39:08.701Z,24.50
2017-09-30T14:41:36.939Z,24.50
2017-09-30T14:44:05.166Z,24.40
2017-09-30T14:46:34.212Z,24.30
2017-09-30T14:49:02.442Z,24.30
2017-09-30T14:51:30.745Z,24.60
2017-09-30T14:53:59.021Z,24.90
2017-09-30T14:56:27.253Z,25.10
2017-09-30T14:58:55.495Z,25.40
2017-09-30T15:01:23.774Z,25.50
2017-09-30T15:03:52.008Z,25.50
2017-09-30T15:06:20.261Z,25.50
2017-09-30T15:08:48.553Z,25.30
2017-09-30T15:11:16.789Z,25.20
2017-09-30T15:13:45.020Z,24.80
2017-09-30T15:16:14.049Z,24.60
2017-09-30T15:18:42.285Z,24.60
2017-09-30T15:21:10.525Z,24.40
2017-09-30T15:23:39.573Z,23.50
2017-09-30T15:26:07.814Z,23.40
2017-09-30T15:28:36.049Z,23.20
2017-09-30T15:31:04.309Z,22.80
2017-09-30T15:33:32.549Z,22.80
2017-09-30T15:36:01.555Z,23.10
2017-09-30T15:38:29.834Z,23.10
2017-09-30T15:40:58.072Z,22.80
2017-09-30T15:43:26.313Z,22.60
2017-09-30T15:45:54.581Z,22.50
2017-09-30T15:48:22.826Z,22.40
2017-09-30T15:50:51.835Z,22.30
2017-09-30T15:53:20.225Z,22.20
2017-09-30T15:55:48.460Z,22.10
2017-09-30T15:58:16.706Z,21.90
2017-09-30T16:00:44.981Z,21.60
2017-09-30T16:03:13.227Z,21.50
2017-09-30T16:05:41.470Z,21.20
2017-09-30T16:08:10.529Z,20.80
2017-09-30T16:10:38.778Z,20.80
2017-09-30T16:13:07.013Z,20.70
2017-09-30T16:15:35.302Z,20.60
2017-09-30T16:18:03.545Z,20.40
2017-09-30T16:20:31.781Z,20.30
2017-09-30T16:23:00.066Z,20.20
2017-09-30T16:25:28.305Z,20.10
2017-09-30T16:27:56.557Z,20.00
2017-09-30T16:30:24.833Z,19.90
2017-09-30T16:32:53.074Z,19.80
2017-09-30T16:35:21.318Z,19.70
2017-09-30T16:37:50.365Z,19.50
2017-09-30T16:40:18.609Z,19.50
2017-09-30T16:42:46.841Z,19.40
2017-09-30T16:45:15.122Z,19.40
2017-09-30T16:47:43.361Z,19.30
2017-09-30T16:50:11.601Z,19.20
2017-09-30T16:52:40.654Z,19.00
2017-09-30T16:55:08.889Z,18.90
2017-09-30T16:57:37.130Z,18.80
2017-09-30T17:00:05.421Z,18.70
2017-09-30T17:02:33.704Z,18.60
2017-09-30T17:05:02.513Z,18.60
2017-09-30T17:07:30.781Z,18.50
2017-09-30T17:09:59.055Z,18.40
2017-09-30T17:12:27.277Z,18.30
2017-09-30T17:14:56.317Z,18.00
2017-09-30T17:17:24.553Z,18.00
2017-09-30T17:19:52.813Z,17.90
2017-09-30T17:22:21.123Z,17.90
2017-09-30T17:24:49.381Z,17.80
2017-09-30T17:27:17.623Z,17.80
2017-09-30T17:29:45.906Z,17.80
2017-09-30T17:32:14.144Z,17.80
2017-09-30T17:34:42.377Z,17.70
2017-09-30T17:37:10.761Z,17.80
2017-09-30T17:39:39.003Z,17.70
2017-09-30T17:42:07.248Z,17.60
2017-09-30T17:44:35.513Z,17.50
2017-09-30T17:47:03.758Z,17.50
2017-09-30T17:49:32.757Z,17.40
2017-09-30T17:52:01.020Z,17.30
2017-09-30T17:54:29.270Z,17.40
2017-09-30T17:56:57.521Z,17.40
2017-09-30T17:59:25.822Z,17.30
2017-09-30T18:01:54.106Z,17.30
2017-09-30T18:04:22.417Z,17.30
2017-09-30T18:06:51.457Z,17.40
2017-09-30T18:09:19.697Z,17.30
2017-09-30T18:11:47.949Z,17.40
2017-09-30T18:14:16.204Z,17.40
2017-09-30T18:16:44.445Z,17.50
2017-09-30T18:19:12.674Z,17.40
2017-09-30T18:21:41.717Z,17.30
2017-09-30T18:24:11.690Z,17.20
2017-09-30T18:26:39.930Z,17.20
2017-09-30T18:29:08.213Z,17.10
2017-09-30T18:31:36.447Z,17.20
2017-09-30T18:34:05.448Z,17.10
2017-09-30T18:36:33.732Z,17.10
2017-09-30T18:39:01.972Z,17.30
2017-09-30T18:41:30.213Z,17.30
2017-09-30T18:43:58.496Z,17.40
2017-09-30T18:46:26.736Z,17.40
2017-09-30T18:48:54.981Z,17.40
2017-09-30T18:51:24.042Z,17.50
2017-09-30T18:53:52.293Z,17.40
2017-09-30T18:56:20.533Z,17.60
2017-09-30T18:58:49.009Z,17.50
2017-09-30T19:01:17.241Z,17.50
2017-09-30T19:03:45.480Z,17.50
2017-09-30T19:06:13.890Z,17.60
2017-09-30T19:08:42.130Z,17.60
2017-09-30T19:11:10.374Z,17.60
2017-09-30T19:13:38.697Z,17.50
2017-09-30T19:16:07.251Z,17.50
2017-09-30T19:18:35.481Z,17.50
2017-09-30T19:21:03.966Z,17.60
2017-09-30T19:23:32.202Z,17.60
2017-09-30T19:26:00.441Z,17.60
2017-09-30T19:28:28.722Z,17.70
2017-09-30T19:30:56.957Z,17.80
2017-09-30T19:33:25.958Z,17.80
2017-09-30T19:35:54.280Z,17.70
2017-09-30T19:38:22.513Z,17.80
2017-09-30T19:40:50.803Z,17.80
2017-09-30T19:43:19.090Z,17.80
2017-09-30T19:45:47.321Z,17.70
2017-09-30T19:48:15.559Z,17.60
2017-09-30T19:50:43.953Z,17.40
2017-09-30T19:53:12.185Z,17.00
2017-09-30T19:55:40.430Z,17.00
2017-09-30T19:58:08.901Z,16.90
2017-09-30T20:00:37.138Z,16.90
2017-09-30T20:03:05.368Z,16.80
2017-09-30T20:05:34.618Z,16.60
2017-09-30T20:08:02.857Z,16.60
2017-09-30T20:10:31.090Z,16.50
2017-09-30T20:12:59.492Z,16.20
2017-09-30T20:15:27.757Z,16.10
2017-09-30T20:17:55.990Z,15.90
2017-09-30T20:20:24.265Z,15.90
2017-09-30T20:22:52.502Z,15.80
2017-09-30T20:25:20.768Z,15.90
2017-09-30T20:27:49.121Z,15.80
2017-09-30T20:30:17.358Z,15.70
2017-09-30T20:32:46.361Z,15.70
2017-09-30T20:35:15.071Z,15.70
2017-09-30T20:37:43.319Z,15.60
2017-09-30T20:40:11.549Z,15.60
2017-09-30T20:42:39.817Z,15.60
2017-09-30T20:45:08.069Z,15.60
2017-09-30T20:47:37.057Z,15.50
2017-09-30T20:50:05.325Z,15.50
2017-09-30T20:52:33.558Z,15.50
2017-09-30T20:55:02.565Z,15.50
2017-09-30T20:57:30.849Z,15.40
2017-09-30T20:59:59.090Z,15.30
2017-09-30T21:02:27.329Z,15.40
2017-09-30T21:04:55.610Z,15.30
2017-09-30T21:07:23.895Z,15.30
2017-09-30T21:09:52.145Z,15.30
2017-09-30T21:12:20.405Z,15.30
2017-09-30T21:14:48.650Z,15.40
2017-09-30T21:17:16.896Z,15.30
2017-09-30T21:19:45.181Z,15.10
2017-09-30T21:22:13.418Z,15.00
2017-09-30T21:24:41.717Z,15.10
2017-09-30T21:27:09.972Z,15.10
2017-09-30T21:29:38.205Z,15.10
2017-09-30T21:32:06.457Z,15.00
2017-09-30T21:34:35.481Z,15.10
2017-09-30T21:37:03.719Z,15.00
2017-09-30T21:39:31.953Z,15.20
2017-09-30T21:42:00.220Z,15.10
2017-09-30T21:44:28.456Z,15.00
2017-09-30T21:46:57.453Z,14.80
2017-09-30T21:49:25.866Z,14.70
2017-09-30T21:51:54.097Z,14.80
2017-09-30T21:54:22.325Z,14.70
2017-09-30T21:56:51.368Z,14.80
2017-09-30T21:59:19.598Z,14.70
2017-09-30T22:01:47.846Z,14.70
2017-09-30T22:04:16.114Z,14.50
2017-09-30T22:06:44.354Z,14.40
2017-09-30T22:09:13.360Z,14.20
2017-09-30T22:11:41.621Z,14.10
2017-09-30T22:14:09.852Z,14.20
2017-09-30T22:16:38.851Z,14.00
2017-09-30T22:19:07.162Z,13.90
2017-09-30T22:21:35.397Z,14.00
2017-09-30T22:24:03.629Z,14.00
2017-09-30T22:26:31.917Z,14.00
2017-09-30T22:29:00.154Z,13.90
2017-09-30T22:31:28.398Z,13.90
2017-09-30T22:33:56.665Z,14.00
2017-09-30T22:36:24.918Z,13.90
2017-09-30T22:38:53.903Z,14.00
2017-09-30T22:41:22.193Z,14.00
2017-09-30T22:43:50.423Z,14.00
2017-09-30T22:46:18.662Z,14.10
2017-09-30T22:48:47.097Z,14.00
2017-09-30T22:51:15.330Z,14.00
2017-09-30T22:53:43.564Z,13.90
2017-09-30T22:56:12.909Z,13.80
2017-09-30T22:58:41.153Z,13.80
2017-09-30T23:01:09.390Z,13.80
2017-09-30T23:03:37.656Z,13.70
2017-09-30T23:06:05.893Z,13.80
2017-09-30T23:08:34.129Z,13.80
2017-09-30T23:11:02.390Z,13.90
2017-09-30T23:13:30.630Z,13.90
2017-09-30T23:15:58.861Z,13.90
2017-09-30T23:18:27.126Z,13.90
2017-09-30T23:20:55.382Z,13.80
2017-09-30T23:23:23.673Z,13.80
2017-09-30T23:25:51.926Z,13.70
2017-09-30T23:28:20.205Z,13.80
2017-09-30T23:30:48.446Z,13.80
2017-09-30T23:33:16.709Z,13.80
2017-09-30T23:35:44.937Z,13.80
2017-09-30T23:38:13.185Z,13.80
2017-09-30T23:40:42.201Z,13.80
2017-09-30T23:43:10.439Z,13.70
2017-09-30T23:45:38.681Z,13.80
2017-09-30T23:48:07.730Z,13.70
2017-09-30T23:50:35.970Z,13.70
2017-09-30T23:53:04.197Z,13.70
2017-09-30T23:55:32.493Z,13.70
2017-09-30T23:58:00.738Z,13.80
